Time;durP1;ratioP1;P1;durP2;ratioP2;P2;SDS_P1;SDS_P2;PMS_P1;PMS_P2;Temp;Humidity;BMP_temperature;BMP_pressure;BME280_temperature;BME280_humidity;BME280_pressure;Samples;Min_cycle;Max_cycle;Signal;HPM_P1;HPM_P2
2023/02/03 00:00:00;;;;;;;;;;;;;;;;;;1035542;28;19917;-76
2023/02/03 00:00:34;;;;;;;;;;;;;;;;;;1035271;28;20063;-76
2023/02/03 00:01:05;;;;;;;;;;;;;;;;;;1035636;28;19918;-75
2023/02/03 00:01:35;;;;;;;;;;;;;;;;;;1040126;28;19936;-76
2023/02/03 00:02:06;;;;;;;;;;;;;;;;;;1040204;28;19909;-76
2023/02/03 00:02:37;;;;;;;;;;;;;;;;;;1043652;28;19944;-77
2023/02/03 00:03:08;;;;;;;;;;;;;;;;;;1043601;28;19920;-75
2023/02/03 00:03:39;;;;;;;;;;;;;;;;;;1043886;28;20013;-75
2023/02/03 00:04:10;;;;;;;;;;;;;;;;;;1042642;28;19912;-78
2023/02/03 00:04:41;;;;;;;;;;;;;;;;;;1043267;28;20061;-75
2023/02/03 00:05:12;;;;;;;;;;;;;;;;;;1043506;28;19909;-77
2023/02/03 00:05:43;;;;;;;;;;;;;;;;;;1043872;28;19917;-76
2023/02/03 00:06:13;;;;;;;;;;;;;;;;;;1047681;28;19913;-76
2023/02/03 00:06:44;;;;;;;;;;;;;;;;;;1047901;28;20037;-77
2023/02/03 00:07:15;;;;;;;;;;;;;;;;;;1048114;28;20283;-77
2023/02/03 00:07:46;;;;;;;;;;;;;;;;;;1048147;28;19912;-76
2023/02/03 00:08:17;;;;;;;;;;;;;;;;;;1043483;28;19913;-77
2023/02/03 00:08:48;;;;;;;;;;;;;;;;;;1043702;28;19986;-75
2023/02/03 00:09:19;;;;;;;;;;;;;;;;;;1043429;28;20593;-75
2023/02/03 00:09:50;;;;;;;;;;;;;;;;;;1043724;28;19916;-75
2023/02/03 00:10:21;;;;;;;;;;;;;;;;;;1043544;28;20410;-76
2023/02/03 00:10:52;;;;;;;;;;;;;;;;;;1043304;28;19912;-77
2023/02/03 00:11:22;;;;;;;;;;;;;;;;;;1043624;28;20021;-76
2023/02/03 00:11:53;;;;;;;;;;;;;;;;;;1039546;28;20452;-76
2023/02/03 00:12:24;;;;;;;;;;;;;;;;;;1039332;28;19951;-77
2023/02/03 00:12:56;;;;;;;;;;;;;;;;;;1042835;28;20346;-77
2023/02/03 00:13:27;;;;;;;;;;;;;;;;;;1043594;28;19913;-76
2023/02/03 00:13:58;;;;;;;;;;;;;;;;;;1043773;28;19913;-76
2023/02/03 00:14:29;;;;;;;;;;;;;;;;;;1041121;28;19909;-76
2023/02/03 00:15:00;;;;;;;;;;;;;;;;;;1039609;28;19948;-77
2023/02/03 00:15:30;;;;;;;;;;;;;;;;;;1041236;28;19964;-76
2023/02/03 00:16:01;;;;;;;;;;;;;;;;;;1039662;28;19916;-77
2023/02/03 00:16:32;;;;;;;;;;;;;;;;;;1039995;28;19913;-76
2023/02/03 00:17:03;;;;;;;;;;;;;;;;;;1039483;28;20376;-77
2023/02/03 00:17:34;;;;;;;;;;;;;;;;;;1035510;28;19921;-76
2023/02/03 00:18:05;;;;;;;;;;;;;;;;;;1035497;28;20008;-76
2023/02/03 00:18:36;;;;;;;;;;;;;;;;;;1039366;28;19913;-76
2023/02/03 00:19:07;;;;;;;;;;;;;;;;;;1039806;28;19913;-77
2023/02/03 00:19:37;;;;;;;;;;;;;;;;;;1039380;28;19971;-77
2023/02/03 00:20:08;;;;;;;;;;;;;;;;;;1039424;28;19913;-77
2023/02/03 00:20:39;;;;;;;;;;;;;;;;;;1039579;28;19983;-77
2023/02/03 00:21:10;;;;;;;;;;;;;;;;;;1040940;28;19913;-77
2023/02/03 00:21:41;;;;;;;;;;;;;;;;;;1047974;28;19923;-76
2023/02/03 00:22:12;;;;;;;;;;;;;;;;;;1047350;28;19912;-78
2023/02/03 00:22:43;;;;;;;;;;;;;;;;;;1044232;28;19908;-76
2023/02/03 00:23:14;;;;;;;;;;;;;;;;;;1043293;28;20307;-76
2023/02/03 00:23:44;;;;;;;;;;;;;;;;;;1043827;28;19920;-77
2023/02/03 00:24:17;;;;;;;;;;;;;;;;;;1043080;28;20011;-76
2023/02/03 00:24:48;;;;;;;;;;;;;;;;;;1043574;28;20390;-76
2023/02/03 00:25:20;;;;;;;;;;;;;;;;;;1043316;28;20658;-75
2023/02/03 00:25:51;;;;;;;;;;;;;;;;;;1043788;28;19921;-77
2023/02/03 00:26:24;;;;;;;;;;;;;;;;;;1039278;28;19913;-77
2023/02/03 00:26:55;;;;;;;;;;;;;;;;;;1043680;28;19913;-77
2023/02/03 00:27:26;;;;;;;;;;;;;;;;;;1043324;28;20006;-77
2023/02/03 00:27:57;;;;;;;;;;;;;;;;;;1043569;28;19936;-77
2023/02/03 00:28:30;;;;;;;;;;;;;;;;;;1043328;28;19947;-76
2023/02/03 00:29:01;;;;;;;;;;;;;;;;;;1042966;28;19963;-76
2023/02/03 00:29:32;;;;;;;;;;;;;;;;;;1042511;28;19919;-75
2023/02/03 00:30:03;;;;;;;;;;;;;;;;;;1043654;28;20289;-76
2023/02/03 00:30:34;;;;;;;;;;;;;;;;;;1043188;28;20026;-75
2023/02/03 00:31:05;;;;;;;;;;;;;;;;;;1043793;28;19913;-76
2023/02/03 00:31:36;;;;;;;;;;;;;;;;;;1043596;28;20011;-76
2023/02/03 00:32:07;;;;;;;;;;;;;;;;;;1047589;28;19916;-76
2023/02/03 00:32:38;;;;;;;;;;;;;;;;;;1043212;28;19913;-76
2023/02/03 00:33:09;;;;;;;;;;;;;;;;;;1043875;28;20483;-76
2023/02/03 00:33:39;;;;;;;;;;;;;;;;;;1047564;28;20486;-76
2023/02/03 00:34:10;;;;;;;;;;;;;;;;;;1043798;28;19913;-76
2023/02/03 00:34:41;;;;;;;;;;;;;;;;;;1042575;28;19978;-75
2023/02/03 00:35:12;;;;;;;;;;;;;;;;;;1039513;28;20043;-76
2023/02/03 00:35:43;;;;;;;;;;;;;;;;;;1035493;28;20004;-76
2023/02/03 00:36:14;;;;;;;;;;;;;;;;;;1039490;28;19920;-76
2023/02/03 00:36:47;;;;;;;;;;;;;;;;;;1039224;28;20551;-76
2023/02/03 00:37:17;;;;;;;;;;;;;;;;;;1039792;28;20347;-75
2023/02/03 00:37:48;;;;;;;;;;;;;;;;;;1043476;28;20386;-75
2023/02/03 00:38:19;;;;;;;;;;;;;;;;;;1043335;28;20280;-75
2023/02/03 00:38:50;;;;;;;;;;;;;;;;;;1036507;28;19999;-75
2023/02/03 00:39:21;;;;;;;;;;;;;;;;;;1039197;28;20331;-76
2023/02/03 00:39:52;;;;;;;;;;;;;;;;;;1039344;28;19917;-75
2023/02/03 00:40:23;;;;;;;;;;;;;;;;;;1040800;28;19945;-75
2023/02/03 00:40:54;;;;;;;;;;;;;;;;;;1047892;28;19919;-76
2023/02/03 00:41:25;;;;;;;;;;;;;;;;;;1048005;28;19965;-76
2023/02/03 00:41:55;;;;;;;;;;;;;;;;;;1047898;28;19954;-77
2023/02/03 00:42:26;;;;;;;;;;;;;;;;;;1043396;28;19999;-75
2023/02/03 00:42:57;;;;;;;;;;;;;;;;;;1043529;28;20411;-75
2023/02/03 00:43:28;;;;;;;;;;;;;;;;;;1043550;28;19915;-76
2023/02/03 00:43:59;;;;;;;;;;;;;;;;;;1043155;28;19995;-76
2023/02/03 00:44:30;;;;;;;;;;;;;;;;;;1043492;28;19913;-76
2023/02/03 00:45:01;;;;;;;;;;;;;;;;;;1040895;28;20623;-76
2023/02/03 00:45:32;;;;;;;;;;;;;;;;;;1037319;28;19935;-75
2023/02/03 00:46:02;;;;;;;;;;;;;;;;;;1039479;28;19913;-75
2023/02/03 00:46:35;;;;;;;;;;;;;;;;;;1039444;28;20450;-76
2023/02/03 00:47:05;;;;;;;;;;;;;;;;;;1043796;28;20518;-75
2023/02/03 00:47:36;;;;;;;;;;;;;;;;;;1047872;28;20260;-76
2023/02/03 00:48:07;;;;;;;;;;;;;;;;;;1048028;28;19966;-76
2023/02/03 00:48:38;;;;;;;;;;;;;;;;;;1047792;28;20011;-74
2023/02/03 00:49:09;;;;;;;;;;;;;;;;;;1043283;28;19913;-74
2023/02/03 00:49:40;;;;;;;;;;;;;;;;;;1043456;28;19920;-75
2023/02/03 00:50:11;;;;;;;;;;;;;;;;;;1043203;28;19920;-75
2023/02/03 00:50:42;;;;;;;;;;;;;;;;;;1043280;28;19913;-75
2023/02/03 00:51:13;;;;;;;;;;;;;;;;;;1043400;28;19986;-77
2023/02/03 00:51:43;;;;;;;;;;;;;;;;;;1039483;28;19963;-76
2023/02/03 00:52:15;;;;;;;;;;;;;;;;;;1043006;28;19913;-76
2023/02/03 00:52:46;;;;;;;;;;;;;;;;;;1043507;28;19920;-76
2023/02/03 00:53:17;;;;;;;;;;;;;;;;;;1043690;28;19920;-77
2023/02/03 00:53:48;;;;;;;;;;;;;;;;;;1047836;28;20363;-77
2023/02/03 00:54:19;;;;;;;;;;;;;;;;;;1047956;28;19912;-76
2023/02/03 00:54:50;;;;;;;;;;;;;;;;;;1043319;28;19917;-76
2023/02/03 00:55:20;;;;;;;;;;;;;;;;;;1043279;28;19946;-76
2023/02/03 00:55:51;;;;;;;;;;;;;;;;;;1043183;28;19935;-76
2023/02/03 00:56:22;;;;;;;;;;;;;;;;;;1043275;28;19916;-77
2023/02/03 00:56:53;;;;;;;;;;;;;;;;;;1043170;28;20015;-77
2023/02/03 00:57:24;;;;;;;;;;;;;;;;;;1043298;28;19913;-76
2023/02/03 00:57:55;;;;;;;;;;;;;;;;;;1039238;28;20380;-76
2023/02/03 00:58:26;;;;;;;;;;;;;;;;;;1043409;28;20582;-77
2023/02/03 00:58:57;;;;;;;;;;;;;;;;;;1038740;28;19959;-75
2023/02/03 00:59:27;;;;;;;;;;;;;;;;;;1038953;28;19982;-76
2023/02/03 00:59:58;;;;;;;;;;;;;;;;;;1038356;28;20318;-76
2023/02/03 01:00:29;;;;;;;;;;;;;;;;;;1039144;28;20327;-75
2023/02/03 01:01:00;;;;;;;;;;;;;;;;;;1043288;28;19919;-77
2023/02/03 01:01:31;;;;;;;;;;;;;;;;;;1043536;28;19998;-76
2023/02/03 01:02:02;;;;;;;;;;;;;;;;;;1043040;28;19916;-76
2023/02/03 01:02:33;;;;;;;;;;;;;;;;;;1045239;28;19955;-77
2023/02/03 01:03:04;;;;;;;;;;;;;;;;;;1043266;28;19920;-76
2023/02/03 01:03:35;;;;;;;;;;;;;;;;;;1043256;28;20541;-76
2023/02/03 01:04:05;;;;;;;;;;;;;;;;;;1043234;28;19942;-74
2023/02/03 01:04:36;;;;;;;;;;;;;;;;;;1043386;28;20007;-75
2023/02/03 01:05:07;;;;;;;;;;;;;;;;;;1047836;28;19919;-75
2023/02/03 01:05:38;;;;;;;;;;;;;;;;;;1047530;28;20582;-76
2023/02/03 01:06:09;;;;;;;;;;;;;;;;;;1042976;28;19909;-76
2023/02/03 01:06:40;;;;;;;;;;;;;;;;;;1042993;28;20639;-76
2023/02/03 01:07:11;;;;;;;;;;;;;;;;;;1043155;28;19917;-76
2023/02/03 01:07:41;;;;;;;;;;;;;;;;;;1045618;28;19915;-77
2023/02/03 01:08:13;;;;;;;;;;;;;;;;;;1042950;28;20019;-76
2023/02/03 01:08:44;;;;;;;;;;;;;;;;;;1043605;28;20330;-76
2023/02/03 01:09:15;;;;;;;;;;;;;;;;;;1045710;28;20456;-77
2023/02/03 01:09:46;;;;;;;;;;;;;;;;;;1043182;28;19915;-77
2023/02/03 01:10:17;;;;;;;;;;;;;;;;;;1038879;28;19960;-75
2023/02/03 01:10:48;;;;;;;;;;;;;;;;;;1039133;28;19991;-76
2023/02/03 01:11:19;;;;;;;;;;;;;;;;;;1039267;28;20395;-75
2023/02/03 01:11:49;;;;;;;;;;;;;;;;;;1043596;28;19917;-76
2023/02/03 01:12:20;;;;;;;;;;;;;;;;;;1042975;28;20372;-77
2023/02/03 01:12:51;;;;;;;;;;;;;;;;;;1043156;28;19951;-75
2023/02/03 01:13:22;;;;;;;;;;;;;;;;;;1043074;28;20370;-76
2023/02/03 01:13:53;;;;;;;;;;;;;;;;;;1043124;28;19909;-77
2023/02/03 01:14:24;;;;;;;;;;;;;;;;;;1042921;28;20038;-76
2023/02/03 01:14:55;;;;;;;;;;;;;;;;;;1043368;28;20388;-76
2023/02/03 01:15:25;;;;;;;;;;;;;;;;;;1042684;28;20000;-75
2023/02/03 01:15:56;;;;;;;;;;;;;;;;;;1042967;28;20403;-76
2023/02/03 01:16:27;;;;;;;;;;;;;;;;;;1042706;28;19909;-76
2023/02/03 01:16:58;;;;;;;;;;;;;;;;;;1043233;28;20332;-77
2023/02/03 01:17:29;;;;;;;;;;;;;;;;;;1038882;28;19905;-76
2023/02/03 01:18:00;;;;;;;;;;;;;;;;;;1039297;28;19905;-76
2023/02/03 01:18:31;;;;;;;;;;;;;;;;;;1038809;28;19931;-77
2023/02/03 01:19:02;;;;;;;;;;;;;;;;;;1034995;28;20052;-76
2023/02/03 01:19:32;;;;;;;;;;;;;;;;;;1038811;28;19916;-77
2023/02/03 01:20:03;;;;;;;;;;;;;;;;;;1039073;28;19987;-75
2023/02/03 01:20:34;;;;;;;;;;;;;;;;;;1039025;28;19910;-76
2023/02/03 01:21:05;;;;;;;;;;;;;;;;;;1042954;28;19931;-76
2023/02/03 01:21:36;;;;;;;;;;;;;;;;;;1043053;28;19954;-76
2023/02/03 01:22:07;;;;;;;;;;;;;;;;;;1042967;28;19909;-76
2023/02/03 01:22:38;;;;;;;;;;;;;;;;;;1042980;28;19908;-75
2023/02/03 01:23:09;;;;;;;;;;;;;;;;;;1042813;28;19909;-75
2023/02/03 01:23:39;;;;;;;;;;;;;;;;;;1038757;28;19909;-76
2023/02/03 01:24:10;;;;;;;;;;;;;;;;;;1034883;28;19909;-76
2023/02/03 01:24:41;;;;;;;;;;;;;;;;;;1039132;28;20368;-74
2023/02/03 01:25:12;;;;;;;;;;;;;;;;;;1042739;28;19971;-76
2023/02/03 01:25:43;;;;;;;;;;;;;;;;;;1043046;28;20559;-75
2023/02/03 01:26:14;;;;;;;;;;;;;;;;;;1041745;28;19912;-76
2023/02/03 01:26:45;;;;;;;;;;;;;;;;;;1039361;28;20661;-75
2023/02/03 01:27:16;;;;;;;;;;;;;;;;;;1043235;28;20267;-75
2023/02/03 01:27:47;;;;;;;;;;;;;;;;;;1043443;28;19951;-76
2023/02/03 01:28:17;;;;;;;;;;;;;;;;;;1042885;28;19971;-76
2023/02/03 01:28:48;;;;;;;;;;;;;;;;;;1043484;28;19938;-74
2023/02/03 01:29:19;;;;;;;;;;;;;;;;;;1043054;28;20709;-76
2023/02/03 01:29:50;;;;;;;;;;;;;;;;;;1043065;28;20004;-75
2023/02/03 01:30:21;;;;;;;;;;;;;;;;;;1047624;28;19920;-76
2023/02/03 01:30:52;;;;;;;;;;;;;;;;;;1047936;28;20844;-76
2023/02/03 01:31:23;;;;;;;;;;;;;;;;;;1047519;28;19912;-76
2023/02/03 01:31:54;;;;;;;;;;;;;;;;;;1043067;28;19939;-76
2023/02/03 01:32:25;;;;;;;;;;;;;;;;;;1042727;28;19913;-77
2023/02/03 01:32:55;;;;;;;;;;;;;;;;;;1043191;28;19920;-76
2023/02/03 01:33:26;;;;;;;;;;;;;;;;;;1043368;28;19912;-76
2023/02/03 01:33:57;;;;;;;;;;;;;;;;;;1047654;28;19913;-76
2023/02/03 01:34:28;;;;;;;;;;;;;;;;;;1047634;28;20379;-76
2023/02/03 01:34:59;;;;;;;;;;;;;;;;;;1043081;28;20415;-76
2023/02/03 01:35:30;;;;;;;;;;;;;;;;;;1039082;28;19913;-76
2023/02/03 01:36:01;;;;;;;;;;;;;;;;;;1039085;28;20447;-76
2023/02/03 01:36:32;;;;;;;;;;;;;;;;;;1039172;28;19913;-76
2023/02/03 01:37:03;;;;;;;;;;;;;;;;;;1041300;28;19951;-76
2023/02/03 01:37:34;;;;;;;;;;;;;;;;;;1038932;28;19973;-76
2023/02/03 01:38:04;;;;;;;;;;;;;;;;;;1039179;28;19951;-76
2023/02/03 01:38:35;;;;;;;;;;;;;;;;;;1038993;28;20024;-76
2023/02/03 01:39:06;;;;;;;;;;;;;;;;;;1039398;28;19923;-76
2023/02/03 01:39:37;;;;;;;;;;;;;;;;;;1043040;28;19983;-76
2023/02/03 01:40:08;;;;;;;;;;;;;;;;;;1039385;28;19920;-76
2023/02/03 01:40:39;;;;;;;;;;;;;;;;;;1043117;28;20364;-77
2023/02/03 01:41:10;;;;;;;;;;;;;;;;;;1039099;28;19910;-75
2023/02/03 01:41:41;;;;;;;;;;;;;;;;;;1034995;28;19909;-76
2023/02/03 01:42:11;;;;;;;;;;;;;;;;;;1037575;28;19916;-76
2023/02/03 01:42:42;;;;;;;;;;;;;;;;;;1039156;28;19910;-74
2023/02/03 01:43:13;;;;;;;;;;;;;;;;;;1035249;28;20008;-76
2023/02/03 01:43:44;;;;;;;;;;;;;;;;;;1040335;28;19906;-76
2023/02/03 01:44:15;;;;;;;;;;;;;;;;;;1039190;28;19917;-76
2023/02/03 01:44:52;;;;;;;;;;;;;;;;;;1039073;28;20012;-76
2023/02/03 01:45:23;;;;;;;;;;;;;;;;;;1039299;28;19996;-76
2023/02/03 01:45:54;;;;;;;;;;;;;;;;;;1035953;28;19913;-76
2023/02/03 01:46:25;;;;;;;;;;;;;;;;;;1039145;28;20001;-75
2023/02/03 01:46:55;;;;;;;;;;;;;;;;;;1039183;28;19913;-76
2023/02/03 01:47:26;;;;;;;;;;;;;;;;;;1043163;28;20003;-76
2023/02/03 01:47:57;;;;;;;;;;;;;;;;;;1043226;28;20360;-75
2023/02/03 01:48:28;;;;;;;;;;;;;;;;;;1042962;28;20271;-76
2023/02/03 01:48:59;;;;;;;;;;;;;;;;;;1043149;28;20426;-76
2023/02/03 01:49:30;;;;;;;;;;;;;;;;;;1043506;28;19913;-76
2023/02/03 01:50:01;;;;;;;;;;;;;;;;;;1047592;28;20261;-76
2023/02/03 01:50:32;;;;;;;;;;;;;;;;;;1042928;28;19951;-75
2023/02/03 01:51:03;;;;;;;;;;;;;;;;;;1043150;28;19921;-76
2023/02/03 01:51:34;;;;;;;;;;;;;;;;;;1043024;28;19919;-75
2023/02/03 01:52:04;;;;;;;;;;;;;;;;;;1043465;28;20442;-76
2023/02/03 01:52:35;;;;;;;;;;;;;;;;;;1043385;28;19913;-76
2023/02/03 01:53:06;;;;;;;;;;;;;;;;;;1043096;28;19945;-76
2023/02/03 01:53:38;;;;;;;;;;;;;;;;;;1043078;28;20629;-77
2023/02/03 01:54:08;;;;;;;;;;;;;;;;;;1039020;28;19913;-77
2023/02/03 01:54:39;;;;;;;;;;;;;;;;;;1039169;28;19956;-77
2023/02/03 01:55:10;;;;;;;;;;;;;;;;;;1039332;28;19909;-76
2023/02/03 01:55:41;;;;;;;;;;;;;;;;;;1038814;28;20471;-77
2023/02/03 01:56:12;;;;;;;;;;;;;;;;;;1039115;28;19968;-76
2023/02/03 01:56:43;;;;;;;;;;;;;;;;;;1039253;28;19920;-76
2023/02/03 01:57:14;;;;;;;;;;;;;;;;;;1039197;28;20020;-75
2023/02/03 01:57:45;;;;;;;;;;;;;;;;;;1043138;28;19909;-75
2023/02/03 01:58:15;;;;;;;;;;;;;;;;;;1043213;28;19908;-76
2023/02/03 01:58:46;;;;;;;;;;;;;;;;;;1043233;28;20106;-76
2023/02/03 01:59:17;;;;;;;;;;;;;;;;;;1042842;28;19952;-76
2023/02/03 01:59:48;;;;;;;;;;;;;;;;;;1038973;28;19921;-77
2023/02/03 02:00:19;;;;;;;;;;;;;;;;;;1039009;28;19913;-78
2023/02/03 02:00:50;;;;;;;;;;;;;;;;;;1039055;28;19960;-77
2023/02/03 02:01:21;;;;;;;;;;;;;;;;;;1039244;28;20010;-76
2023/02/03 02:01:52;;;;;;;;;;;;;;;;;;1042985;28;20634;-76
2023/02/03 02:02:22;;;;;;;;;;;;;;;;;;1038446;28;19913;-78
2023/02/03 02:02:53;;;;;;;;;;;;;;;;;;1039142;28;20376;-78
2023/02/03 02:03:24;;;;;;;;;;;;;;;;;;1039346;28;19913;-77
2023/02/03 02:03:55;;;;;;;;;;;;;;;;;;1043611;28;19989;-76
2023/02/03 02:04:26;;;;;;;;;;;;;;;;;;1042886;28;20724;-77
2023/02/03 02:04:57;;;;;;;;;;;;;;;;;;1043142;28;19920;-76
2023/02/03 02:05:29;;;;;;;;;;;;;;;;;;1038994;28;19920;-76
2023/02/03 02:06:00;;;;;;;;;;;;;;;;;;1041200;28;19909;-76
2023/02/03 02:06:30;;;;;;;;;;;;;;;;;;1038979;28;19909;-77
2023/02/03 02:07:01;;;;;;;;;;;;;;;;;;1039436;28;19994;-76
2023/02/03 02:07:32;;;;;;;;;;;;;;;;;;1038695;28;20313;-78
2023/02/03 02:08:03;;;;;;;;;;;;;;;;;;1038945;28;19916;-78
2023/02/03 02:08:34;;;;;;;;;;;;;;;;;;1038962;28;19955;-77
2023/02/03 02:09:05;;;;;;;;;;;;;;;;;;1038950;28;20371;-77
2023/02/03 02:09:36;;;;;;;;;;;;;;;;;;1039134;28;19906;-77
2023/02/03 02:10:06;;;;;;;;;;;;;;;;;;1039275;28;19955;-77
2023/02/03 02:10:37;;;;;;;;;;;;;;;;;;1043078;28;19911;-75
2023/02/03 02:11:08;;;;;;;;;;;;;;;;;;1042975;28;19917;-77
2023/02/03 02:11:39;;;;;;;;;;;;;;;;;;1043413;28;20470;-76
2023/02/03 02:12:10;;;;;;;;;;;;;;;;;;1047370;28;19916;-77
2023/02/03 02:12:41;;;;;;;;;;;;;;;;;;1047189;28;20020;-76
2023/02/03 02:13:12;;;;;;;;;;;;;;;;;;1047598;28;19912;-77
2023/02/03 02:13:43;;;;;;;;;;;;;;;;;;1047695;28;19908;-76
2023/02/03 02:14:14;;;;;;;;;;;;;;;;;;1047308;28;19913;-77
2023/02/03 02:14:44;;;;;;;;;;;;;;;;;;1047515;28;19916;-76
2023/02/03 02:15:16;;;;;;;;;;;;;;;;;;1047713;28;19909;-77
2023/02/03 02:15:47;;;;;;;;;;;;;;;;;;1047735;28;19931;-76
2023/02/03 02:16:18;;;;;;;;;;;;;;;;;;1047245;28;20275;-77
2023/02/03 02:16:49;;;;;;;;;;;;;;;;;;1042998;28;20003;-77
2023/02/03 02:17:19;;;;;;;;;;;;;;;;;;1043180;28;20307;-77
2023/02/03 02:17:50;;;;;;;;;;;;;;;;;;1042944;28;20031;-75
2023/02/03 02:18:21;;;;;;;;;;;;;;;;;;1043139;28;20003;-76
2023/02/03 02:18:52;;;;;;;;;;;;;;;;;;1038901;28;19912;-76
2023/02/03 02:19:23;;;;;;;;;;;;;;;;;;1039193;28;20031;-76
2023/02/03 02:19:54;;;;;;;;;;;;;;;;;;1043080;28;20046;-76
2023/02/03 02:20:25;;;;;;;;;;;;;;;;;;1043412;28;19916;-76
2023/02/03 02:20:55;;;;;;;;;;;;;;;;;;1043043;28;19915;-75
2023/02/03 02:21:26;;;;;;;;;;;;;;;;;;1042924;28;20408;-75
2023/02/03 02:21:57;;;;;;;;;;;;;;;;;;1043141;28;19936;-75
2023/02/03 02:22:28;;;;;;;;;;;;;;;;;;1043105;28;20574;-75
2023/02/03 02:22:59;;;;;;;;;;;;;;;;;;1042942;28;19951;-76
2023/02/03 02:23:30;;;;;;;;;;;;;;;;;;1039145;28;19959;-75
2023/02/03 02:24:01;;;;;;;;;;;;;;;;;;1039170;28;19992;-78
2023/02/03 02:24:32;;;;;;;;;;;;;;;;;;1042955;28;19915;-76
2023/02/03 02:25:03;;;;;;;;;;;;;;;;;;1043172;28;20011;-75
2023/02/03 02:25:33;;;;;;;;;;;;;;;;;;1042979;28;19909;-76
2023/02/03 02:26:04;;;;;;;;;;;;;;;;;;1042656;28;19909;-76
2023/02/03 02:26:35;;;;;;;;;;;;;;;;;;1039071;28;19967;-76
2023/02/03 02:27:06;;;;;;;;;;;;;;;;;;1043342;28;20000;-74
2023/02/03 02:27:37;;;;;;;;;;;;;;;;;;1047611;28;19915;-74
2023/02/03 02:28:08;;;;;;;;;;;;;;;;;;1048439;28;19934;-77
2023/02/03 02:28:39;;;;;;;;;;;;;;;;;;1048159;28;19909;-75
2023/02/03 02:29:10;;;;;;;;;;;;;;;;;;1048593;28;19912;-76
2023/02/03 02:29:41;;;;;;;;;;;;;;;;;;1043788;28;20015;-75
2023/02/03 02:30:12;;;;;;;;;;;;;;;;;;1043276;28;19909;-75
2023/02/03 02:30:42;;;;;;;;;;;;;;;;;;1043732;28;20020;-75
2023/02/03 02:31:13;;;;;;;;;;;;;;;;;;1043669;28;19956;-75
2023/02/03 02:31:44;;;;;;;;;;;;;;;;;;1043721;28;20494;-77
2023/02/03 02:32:15;;;;;;;;;;;;;;;;;;1043274;28;19916;-75
2023/02/03 02:32:46;;;;;;;;;;;;;;;;;;1043989;28;19944;-76
2023/02/03 02:33:17;;;;;;;;;;;;;;;;;;1040433;28;19987;-75
2023/02/03 02:33:48;;;;;;;;;;;;;;;;;;1041195;28;19913;-75
2023/02/03 02:34:19;;;;;;;;;;;;;;;;;;1039472;28;20479;-75
2023/02/03 02:34:50;;;;;;;;;;;;;;;;;;1039914;28;19916;-76
2023/02/03 02:35:20;;;;;;;;;;;;;;;;;;1043634;28;19909;-75
2023/02/03 02:35:51;;;;;;;;;;;;;;;;;;1044122;28;19909;-75
2023/02/03 02:36:22;;;;;;;;;;;;;;;;;;1048056;28;20303;-75
2023/02/03 02:36:53;;;;;;;;;;;;;;;;;;1048005;28;19915;-76
2023/02/03 02:37:24;;;;;;;;;;;;;;;;;;1048143;28;20665;-76
2023/02/03 02:37:55;;;;;;;;;;;;;;;;;;1043712;28;19909;-77
2023/02/03 02:38:26;;;;;;;;;;;;;;;;;;1043516;28;19939;-76
2023/02/03 02:38:57;;;;;;;;;;;;;;;;;;1043604;28;19936;-75
2023/02/03 02:39:28;;;;;;;;;;;;;;;;;;1043622;28;20344;-75
2023/02/03 02:39:59;;;;;;;;;;;;;;;;;;1043746;28;20698;-76
2023/02/03 02:40:30;;;;;;;;;;;;;;;;;;1043506;28;19975;-76
2023/02/03 02:41:01;;;;;;;;;;;;;;;;;;1039624;28;19912;-74
2023/02/03 02:41:31;;;;;;;;;;;;;;;;;;1043602;28;19967;-76
2023/02/03 02:42:02;;;;;;;;;;;;;;;;;;1043690;28;19913;-76
2023/02/03 02:42:33;;;;;;;;;;;;;;;;;;1043455;28;20023;-77
2023/02/03 02:43:04;;;;;;;;;;;;;;;;;;1043847;28;19940;-77
2023/02/03 02:43:35;;;;;;;;;;;;;;;;;;1043636;28;20003;-76
2023/02/03 02:44:06;;;;;;;;;;;;;;;;;;1046163;28;20407;-76
2023/02/03 02:44:37;;;;;;;;;;;;;;;;;;1050436;28;20367;-76
2023/02/03 02:45:08;;;;;;;;;;;;;;;;;;1047913;28;19959;-75
2023/02/03 02:45:39;;;;;;;;;;;;;;;;;;1047818;28;19912;-76
2023/02/03 02:46:11;;;;;;;;;;;;;;;;;;1043468;28;19915;-76
2023/02/03 02:46:42;;;;;;;;;;;;;;;;;;1043539;28;20431;-76
2023/02/03 02:47:13;;;;;;;;;;;;;;;;;;1043408;28;19916;-76
2023/02/03 02:47:44;;;;;;;;;;;;;;;;;;1043697;28;19909;-75
2023/02/03 02:48:15;;;;;;;;;;;;;;;;;;1043600;28;19919;-75
2023/02/03 02:48:45;;;;;;;;;;;;;;;;;;1039732;28;20364;-76
2023/02/03 02:49:16;;;;;;;;;;;;;;;;;;1039570;28;19914;-76
2023/02/03 02:49:47;;;;;;;;;;;;;;;;;;1039912;28;20375;-77
2023/02/03 02:50:18;;;;;;;;;;;;;;;;;;1039819;28;20027;-75
2023/02/03 02:50:49;;;;;;;;;;;;;;;;;;1040039;28;19906;-75
2023/02/03 02:51:20;;;;;;;;;;;;;;;;;;1043658;28;19943;-76
2023/02/03 02:51:51;;;;;;;;;;;;;;;;;;1043985;28;19909;-76
2023/02/03 02:52:22;;;;;;;;;;;;;;;;;;1043574;28;19915;-76
2023/02/03 02:52:52;;;;;;;;;;;;;;;;;;1043987;28;19948;-76
2023/02/03 02:53:23;;;;;;;;;;;;;;;;;;1039839;28;19909;-75
2023/02/03 02:53:54;;;;;;;;;;;;;;;;;;1043841;28;19909;-76
2023/02/03 02:54:25;;;;;;;;;;;;;;;;;;1043682;28;19909;-75
2023/02/03 02:54:56;;;;;;;;;;;;;;;;;;1044061;28;19915;-76
2023/02/03 02:55:27;;;;;;;;;;;;;;;;;;1044083;28;19932;-76
2023/02/03 02:55:58;;;;;;;;;;;;;;;;;;1048238;28;19909;-75
2023/02/03 02:56:28;;;;;;;;;;;;;;;;;;1048149;28;19913;-77
2023/02/03 02:56:59;;;;;;;;;;;;;;;;;;1048131;28;20480;-76
2023/02/03 02:57:30;;;;;;;;;;;;;;;;;;1048042;28;19909;-76
2023/02/03 02:58:01;;;;;;;;;;;;;;;;;;1048346;28;19908;-76
2023/02/03 02:58:32;;;;;;;;;;;;;;;;;;1048162;28;19908;-76
2023/02/03 02:59:04;;;;;;;;;;;;;;;;;;1043567;28;19995;-76
2023/02/03 02:59:35;;;;;;;;;;;;;;;;;;1043544;28;19909;-76
2023/02/03 03:00:05;;;;;;;;;;;;;;;;;;1043936;28;19909;-77
2023/02/03 03:00:36;;;;;;;;;;;;;;;;;;1043635;28;20051;-76
2023/02/03 03:01:08;;;;;;;;;;;;;;;;;;1043940;28;19909;-77
2023/02/03 03:01:40;;;;;;;;;;;;;;;;;;1044241;28;19909;-75
2023/02/03 03:02:10;;;;;;;;;;;;;;;;;;1048257;28;19908;-77
2023/02/03 03:02:41;;;;;;;;;;;;;;;;;;1048174;28;19916;-75
2023/02/03 03:03:12;;;;;;;;;;;;;;;;;;1043728;28;19984;-77
2023/02/03 03:03:44;;;;;;;;;;;;;;;;;;1043778;28;20349;-76
2023/02/03 03:04:14;;;;;;;;;;;;;;;;;;1043710;28;19913;-76
2023/02/03 03:04:45;;;;;;;;;;;;;;;;;;1044166;28;19932;-77
2023/02/03 03:05:16;;;;;;;;;;;;;;;;;;1043715;28;20343;-76
2023/02/03 03:05:47;;;;;;;;;;;;;;;;;;1043554;28;19917;-75
2023/02/03 03:06:18;;;;;;;;;;;;;;;;;;1043720;28;20807;-76
2023/02/03 03:06:49;;;;;;;;;;;;;;;;;;1043891;28;20004;-78
2023/02/03 03:07:20;;;;;;;;;;;;;;;;;;1044004;28;19913;-76
2023/02/03 03:07:51;;;;;;;;;;;;;;;;;;1048299;28;20646;-76
2023/02/03 03:08:21;;;;;;;;;;;;;;;;;;1048028;28;19916;-77
2023/02/03 03:08:52;;;;;;;;;;;;;;;;;;1048437;28;19912;-77
2023/02/03 03:09:23;;;;;;;;;;;;;;;;;;1048118;28;19913;-77
2023/02/03 03:09:54;;;;;;;;;;;;;;;;;;1043819;28;19917;-77
2023/02/03 03:10:26;;;;;;;;;;;;;;;;;;1043730;28;19920;-76
2023/02/03 03:10:56;;;;;;;;;;;;;;;;;;1043867;28;19916;-75
2023/02/03 03:11:27;;;;;;;;;;;;;;;;;;1044048;28;19920;-75
2023/02/03 03:11:58;;;;;;;;;;;;;;;;;;1043954;28;19913;-76
2023/02/03 03:12:29;;;;;;;;;;;;;;;;;;1043522;28;19916;-75
2023/02/03 03:13:00;;;;;;;;;;;;;;;;;;1044043;28;20364;-76
2023/02/03 03:13:31;;;;;;;;;;;;;;;;;;1043571;28;19919;-75
2023/02/03 03:14:02;;;;;;;;;;;;;;;;;;1043882;28;20416;-77
2023/02/03 03:14:33;;;;;;;;;;;;;;;;;;1043794;28;19917;-77
2023/02/03 03:15:04;;;;;;;;;;;;;;;;;;1044024;28;19912;-75
2023/02/03 03:15:35;;;;;;;;;;;;;;;;;;1043666;28;20007;-77
2023/02/03 03:16:06;;;;;;;;;;;;;;;;;;1043892;28;20322;-76
2023/02/03 03:16:37;;;;;;;;;;;;;;;;;;1043461;28;19917;-76
2023/02/03 03:17:08;;;;;;;;;;;;;;;;;;1039873;28;19970;-75
2023/02/03 03:17:39;;;;;;;;;;;;;;;;;;1039543;28;19940;-76
2023/02/03 03:18:09;;;;;;;;;;;;;;;;;;1039764;28;20400;-75
2023/02/03 03:18:42;;;;;;;;;;;;;;;;;;1035404;28;19961;-75
2023/02/03 03:19:13;;;;;;;;;;;;;;;;;;1035926;28;19913;-75
2023/02/03 03:19:44;;;;;;;;;;;;;;;;;;1038874;28;19972;-76
2023/02/03 03:20:14;;;;;;;;;;;;;;;;;;1035917;28;19913;-76
2023/02/03 03:20:45;;;;;;;;;;;;;;;;;;1039622;28;20707;-75
2023/02/03 03:21:16;;;;;;;;;;;;;;;;;;1035428;28;20709;-76
2023/02/03 03:21:47;;;;;;;;;;;;;;;;;;1035695;28;19945;-77
2023/02/03 03:22:18;;;;;;;;;;;;;;;;;;1039363;28;20633;-76
2023/02/03 03:22:49;;;;;;;;;;;;;;;;;;1039890;28;19917;-76
2023/02/03 03:23:20;;;;;;;;;;;;;;;;;;1039613;28;19913;-77
2023/02/03 03:23:51;;;;;;;;;;;;;;;;;;1040012;28;20043;-75
2023/02/03 03:24:21;;;;;;;;;;;;;;;;;;1043643;28;20474;-76
2023/02/03 03:24:52;;;;;;;;;;;;;;;;;;1043584;28;20399;-76
2023/02/03 03:25:23;;;;;;;;;;;;;;;;;;1043800;28;19913;-76
2023/02/03 03:25:54;;;;;;;;;;;;;;;;;;1043381;28;19917;-77
2023/02/03 03:26:26;;;;;;;;;;;;;;;;;;1039833;28;19913;-75
2023/02/03 03:26:57;;;;;;;;;;;;;;;;;;1044018;28;19913;-75
2023/02/03 03:27:28;;;;;;;;;;;;;;;;;;1043732;28;19917;-76
2023/02/03 03:27:59;;;;;;;;;;;;;;;;;;1043692;28;20260;-76
2023/02/03 03:28:30;;;;;;;;;;;;;;;;;;1043395;28;19916;-76
2023/02/03 03:29:01;;;;;;;;;;;;;;;;;;1039540;28;19912;-76
2023/02/03 03:29:34;;;;;;;;;;;;;;;;;;1039537;28;19940;-76
2023/02/03 03:30:04;;;;;;;;;;;;;;;;;;1035493;28;19916;-76
2023/02/03 03:30:35;;;;;;;;;;;;;;;;;;1036042;28;19921;-77
2023/02/03 03:31:06;;;;;;;;;;;;;;;;;;1039686;28;20467;-76